sensor_id;sensor_type;location;lat;lon;timestamp;P1;durP1;ratioP1;P2;durP2;ratioP2
57113;SDS011;42994;51.606;9.988;2023-09-19T00:01:31;2.38;;;0.88;;
57113;SDS011;42994;51.606;9.988;2023-09-19T00:03:59;1.55;;;1.40;;
57113;SDS011;42994;51.606;9.988;2023-09-19T00:06:27;1.58;;;1.13;;
57113;SDS011;42994;51.606;9.988;2023-09-19T00:08:56;0.90;;;0.70;;
57113;SDS011;42994;51.606;9.988;2023-09-19T00:11:25;1.00;;;0.50;;
57113;SDS011;42994;51.606;9.988;2023-09-19T00:13:52;0.82;;;0.70;;
57113;SDS011;42994;51.606;9.988;2023-09-19T00:16:19;1.33;;;0.98;;
57113;SDS011;42994;51.606;9.988;2023-09-19T00:18:46;0.60;;;0.60;;
57113;SDS011;42994;51.606;9.988;2023-09-19T00:21:15;2.13;;;1.00;;
57113;SDS011;42994;51.606;9.988;2023-09-19T00:23:42;1.60;;;1.30;;
57113;SDS011;42994;51.606;9.988;2023-09-19T00:26:08;1.65;;;0.90;;
57113;SDS011;42994;51.606;9.988;2023-09-19T00:28:35;4.60;;;0.90;;
57113;SDS011;42994;51.606;9.988;2023-09-19T00:31:02;1.48;;;0.90;;
57113;SDS011;42994;51.606;9.988;2023-09-19T00:33:30;2.72;;;1.20;;
57113;SDS011;42994;51.606;9.988;2023-09-19T00:35:57;2.13;;;1.15;;
57113;SDS011;42994;51.606;9.988;2023-09-19T00:38:26;2.72;;;1.17;;
57113;SDS011;42994;51.606;9.988;2023-09-19T00:40:53;5.70;;;1.42;;
57113;SDS011;42994;51.606;9.988;2023-09-19T00:43:22;2.15;;;1.17;;
57113;SDS011;42994;51.606;9.988;2023-09-19T00:45:50;2.35;;;1.17;;
57113;SDS011;42994;51.606;9.988;2023-09-19T00:48:18;3.22;;;0.90;;
57113;SDS011;42994;51.606;9.988;2023-09-19T00:50:46;2.38;;;1.13;;
57113;SDS011;42994;51.606;9.988;2023-09-19T00:53:15;3.08;;;1.08;;
57113;SDS011;42994;51.606;9.988;2023-09-19T00:55:46;3.45;;;1.55;;
57113;SDS011;42994;51.606;9.988;2023-09-19T00:58:13;4.45;;;1.38;;
57113;SDS011;42994;51.606;9.988;2023-09-19T01:00:40;1.88;;;1.05;;
57113;SDS011;42994;51.606;9.988;2023-09-19T01:03:10;1.42;;;1.20;;
57113;SDS011;42994;51.606;9.988;2023-09-19T01:05:39;1.88;;;1.20;;
57113;SDS011;42994;51.606;9.988;2023-09-19T01:08:07;2.63;;;1.17;;
57113;SDS011;42994;51.606;9.988;2023-09-19T01:10:36;2.35;;;1.08;;
57113;SDS011;42994;51.606;9.988;2023-09-19T01:13:13;2.53;;;1.08;;
57113;SDS011;42994;51.606;9.988;2023-09-19T01:15:46;2.38;;;1.23;;
57113;SDS011;42994;51.606;9.988;2023-09-19T01:18:20;2.10;;;1.17;;
57113;SDS011;42994;51.606;9.988;2023-09-19T01:20:55;1.85;;;1.13;;
57113;SDS011;42994;51.606;9.988;2023-09-19T01:23:32;2.13;;;1.40;;
57113;SDS011;42994;51.606;9.988;2023-09-19T01:26:07;2.20;;;1.25;;
57113;SDS011;42994;51.606;9.988;2023-09-19T01:28:47;3.30;;;1.52;;
57113;SDS011;42994;51.606;9.988;2023-09-19T01:31:22;3.10;;;1.52;;
57113;SDS011;42994;51.606;9.988;2023-09-19T01:33:58;2.20;;;1.30;;
57113;SDS011;42994;51.606;9.988;2023-09-19T01:36:27;1.67;;;1.48;;
57113;SDS011;42994;51.606;9.988;2023-09-19T01:38:55;2.03;;;1.33;;
57113;SDS011;42994;51.606;9.988;2023-09-19T01:41:26;4.78;;;1.63;;
57113;SDS011;42994;51.606;9.988;2023-09-19T01:43:57;1.60;;;1.40;;
57113;SDS011;42994;51.606;9.988;2023-09-19T01:46:30;4.57;;;1.60;;
57113;SDS011;42994;51.606;9.988;2023-09-19T01:49:05;3.03;;;1.50;;
57113;SDS011;42994;51.606;9.988;2023-09-19T01:54:30;6.47;;;1.73;;
57113;SDS011;42994;51.606;9.988;2023-09-19T01:57:04;3.20;;;1.52;;
57113;SDS011;42994;51.606;9.988;2023-09-19T01:59:37;4.20;;;1.48;;
57113;SDS011;42994;51.606;9.988;2023-09-19T02:02:11;3.15;;;1.42;;
57113;SDS011;42994;51.606;9.988;2023-09-19T02:04:39;2.92;;;1.60;;
57113;SDS011;42994;51.606;9.988;2023-09-19T02:07:06;1.35;;;1.15;;
57113;SDS011;42994;51.606;9.988;2023-09-19T02:09:33;4.30;;;1.38;;
57113;SDS011;42994;51.606;9.988;2023-09-19T02:12:03;3.40;;;1.73;;
57113;SDS011;42994;51.606;9.988;2023-09-19T02:14:30;1.30;;;1.20;;
57113;SDS011;42994;51.606;9.988;2023-09-19T02:16:57;2.13;;;1.52;;
57113;SDS011;42994;51.606;9.988;2023-09-19T02:19:26;5.03;;;1.88;;
57113;SDS011;42994;51.606;9.988;2023-09-19T02:21:53;3.20;;;1.60;;
57113;SDS011;42994;51.606;9.988;2023-09-19T02:24:20;2.15;;;1.63;;
57113;SDS011;42994;51.606;9.988;2023-09-19T02:26:47;3.95;;;2.17;;
57113;SDS011;42994;51.606;9.988;2023-09-19T02:29:13;2.60;;;1.88;;
57113;SDS011;42994;51.606;9.988;2023-09-19T02:31:40;1.75;;;1.42;;
57113;SDS011;42994;51.606;9.988;2023-09-19T02:34:07;2.95;;;1.48;;
57113;SDS011;42994;51.606;9.988;2023-09-19T02:36:35;2.75;;;1.40;;
57113;SDS011;42994;51.606;9.988;2023-09-19T02:39:02;2.90;;;1.70;;
57113;SDS011;42994;51.606;9.988;2023-09-19T02:41:30;2.10;;;1.48;;
57113;SDS011;42994;51.606;9.988;2023-09-19T02:43:58;4.72;;;1.50;;
57113;SDS011;42994;51.606;9.988;2023-09-19T02:46:28;2.03;;;1.83;;
57113;SDS011;42994;51.606;9.988;2023-09-19T02:48:55;5.68;;;1.55;;
57113;SDS011;42994;51.606;9.988;2023-09-19T02:51:22;2.00;;;1.55;;
57113;SDS011;42994;51.606;9.988;2023-09-19T02:53:50;3.03;;;1.80;;
57113;SDS011;42994;51.606;9.988;2023-09-19T02:56:17;4.07;;;2.00;;
57113;SDS011;42994;51.606;9.988;2023-09-19T02:58:44;3.67;;;1.90;;
57113;SDS011;42994;51.606;9.988;2023-09-19T03:01:11;4.13;;;1.50;;
57113;SDS011;42994;51.606;9.988;2023-09-19T03:03:38;3.70;;;2.08;;
57113;SDS011;42994;51.606;9.988;2023-09-19T03:06:06;2.13;;;1.98;;
57113;SDS011;42994;51.606;9.988;2023-09-19T03:08:34;3.95;;;1.90;;
57113;SDS011;42994;51.606;9.988;2023-09-19T03:11:04;4.30;;;1.70;;
57113;SDS011;42994;51.606;9.988;2023-09-19T03:13:33;2.50;;;2.03;;
57113;SDS011;42994;51.606;9.988;2023-09-19T03:16:02;5.15;;;2.08;;
57113;SDS011;42994;51.606;9.988;2023-09-19T03:18:31;5.07;;;2.10;;
57113;SDS011;42994;51.606;9.988;2023-09-19T03:20:58;5.20;;;2.47;;
57113;SDS011;42994;51.606;9.988;2023-09-19T03:23:26;10.60;;;2.60;;
57113;SDS011;42994;51.606;9.988;2023-09-19T03:25:54;3.75;;;2.00;;
57113;SDS011;42994;51.606;9.988;2023-09-19T03:28:23;2.63;;;1.77;;
57113;SDS011;42994;51.606;9.988;2023-09-19T03:30:59;4.50;;;2.30;;
57113;SDS011;42994;51.606;9.988;2023-09-19T03:33:27;10.95;;;2.45;;
57113;SDS011;42994;51.606;9.988;2023-09-19T03:35:57;5.40;;;2.42;;
57113;SDS011;42994;51.606;9.988;2023-09-19T03:38:24;5.07;;;2.05;;
57113;SDS011;42994;51.606;9.988;2023-09-19T03:40:51;2.63;;;2.30;;
57113;SDS011;42994;51.606;9.988;2023-09-19T03:43:18;8.13;;;2.17;;
57113;SDS011;42994;51.606;9.988;2023-09-19T03:45:46;3.58;;;2.08;;
57113;SDS011;42994;51.606;9.988;2023-09-19T03:48:14;6.10;;;2.13;;
57113;SDS011;42994;51.606;9.988;2023-09-19T03:50:41;4.88;;;2.30;;
57113;SDS011;42994;51.606;9.988;2023-09-19T03:53:09;5.72;;;2.20;;
57113;SDS011;42994;51.606;9.988;2023-09-19T03:55:35;4.38;;;2.45;;
57113;SDS011;42994;51.606;9.988;2023-09-19T03:58:04;5.07;;;2.65;;
57113;SDS011;42994;51.606;9.988;2023-09-19T04:00:31;7.13;;;2.78;;
57113;SDS011;42994;51.606;9.988;2023-09-19T04:03:01;3.17;;;2.28;;
57113;SDS011;42994;51.606;9.988;2023-09-19T04:05:31;6.10;;;2.20;;
57113;SDS011;42994;51.606;9.988;2023-09-19T04:07:57;4.63;;;2.17;;
57113;SDS011;42994;51.606;9.988;2023-09-19T04:10:24;5.82;;;2.38;;
57113;SDS011;42994;51.606;9.988;2023-09-19T04:12:53;3.05;;;2.17;;
57113;SDS011;42994;51.606;9.988;2023-09-19T04:15:21;3.45;;;2.38;;
57113;SDS011;42994;51.606;9.988;2023-09-19T04:17:49;5.72;;;2.40;;
57113;SDS011;42994;51.606;9.988;2023-09-19T04:20:18;3.88;;;2.08;;
57113;SDS011;42994;51.606;9.988;2023-09-19T04:22:45;6.03;;;2.38;;
57113;SDS011;42994;51.606;9.988;2023-09-19T04:25:12;3.47;;;2.28;;
57113;SDS011;42994;51.606;9.988;2023-09-19T04:27:38;8.48;;;2.28;;
57113;SDS011;42994;51.606;9.988;2023-09-19T04:30:07;4.22;;;2.38;;
57113;SDS011;42994;51.606;9.988;2023-09-19T04:32:36;3.95;;;2.13;;
57113;SDS011;42994;51.606;9.988;2023-09-19T04:35:05;2.92;;;2.63;;
57113;SDS011;42994;51.606;9.988;2023-09-19T04:37:36;3.92;;;2.22;;
57113;SDS011;42994;51.606;9.988;2023-09-19T04:40:04;5.45;;;2.55;;
57113;SDS011;42994;51.606;9.988;2023-09-19T04:45:02;4.70;;;2.50;;
57113;SDS011;42994;51.606;9.988;2023-09-19T04:47:30;2.65;;;2.25;;
57113;SDS011;42994;51.606;9.988;2023-09-19T04:49:57;5.60;;;2.88;;
57113;SDS011;42994;51.606;9.988;2023-09-19T04:52:24;8.18;;;2.88;;
57113;SDS011;42994;51.606;9.988;2023-09-19T04:54:52;5.43;;;2.53;;
57113;SDS011;42994;51.606;9.988;2023-09-19T04:57:18;5.95;;;3.20;;
57113;SDS011;42994;51.606;9.988;2023-09-19T04:59:45;8.40;;;2.60;;
57113;SDS011;42994;51.606;9.988;2023-09-19T05:02:11;6.78;;;3.05;;
57113;SDS011;42994;51.606;9.988;2023-09-19T05:04:38;6.50;;;2.65;;
57113;SDS011;42994;51.606;9.988;2023-09-19T05:07:05;4.07;;;2.55;;
57113;SDS011;42994;51.606;9.988;2023-09-19T05:09:32;7.38;;;2.40;;
57113;SDS011;42994;51.606;9.988;2023-09-19T05:12:01;4.60;;;2.40;;
57113;SDS011;42994;51.606;9.988;2023-09-19T05:14:28;7.70;;;2.45;;
57113;SDS011;42994;51.606;9.988;2023-09-19T05:16:55;7.78;;;3.03;;
57113;SDS011;42994;51.606;9.988;2023-09-19T05:19:21;3.53;;;2.60;;
57113;SDS011;42994;51.606;9.988;2023-09-19T05:21:48;6.50;;;2.80;;
57113;SDS011;42994;51.606;9.988;2023-09-19T05:24:14;3.25;;;2.60;;
57113;SDS011;42994;51.606;9.988;2023-09-19T05:26:42;3.47;;;2.97;;
57113;SDS011;42994;51.606;9.988;2023-09-19T05:29:10;11.82;;;3.15;;
57113;SDS011;42994;51.606;9.988;2023-09-19T05:31:38;4.95;;;2.95;;
57113;SDS011;42994;51.606;9.988;2023-09-19T05:34:06;4.55;;;2.88;;
57113;SDS011;42994;51.606;9.988;2023-09-19T05:36:32;4.97;;;2.88;;
57113;SDS011;42994;51.606;9.988;2023-09-19T05:38:59;5.97;;;3.28;;
57113;SDS011;42994;51.606;9.988;2023-09-19T05:41:26;5.13;;;2.50;;
57113;SDS011;42994;51.606;9.988;2023-09-19T05:43:53;6.25;;;3.60;;
57113;SDS011;42994;51.606;9.988;2023-09-19T05:46:21;4.43;;;2.58;;
57113;SDS011;42994;51.606;9.988;2023-09-19T05:48:50;5.07;;;3.38;;
57113;SDS011;42994;51.606;9.988;2023-09-19T05:51:16;8.40;;;2.55;;
57113;SDS011;42994;51.606;9.988;2023-09-19T05:53:48;11.93;;;4.03;;
57113;SDS011;42994;51.606;9.988;2023-09-19T05:56:15;4.72;;;2.42;;
57113;SDS011;42994;51.606;9.988;2023-09-19T05:58:44;7.22;;;2.88;;
57113;SDS011;42994;51.606;9.988;2023-09-19T06:01:10;5.97;;;2.40;;
57113;SDS011;42994;51.606;9.988;2023-09-19T06:03:38;9.25;;;2.58;;
57113;SDS011;42994;51.606;9.988;2023-09-19T06:06:05;4.90;;;2.55;;
57113;SDS011;42994;51.606;9.988;2023-09-19T06:08:33;8.63;;;2.92;;
57113;SDS011;42994;51.606;9.988;2023-09-19T06:10:59;8.18;;;2.80;;
57113;SDS011;42994;51.606;9.988;2023-09-19T06:13:27;6.20;;;2.88;;
57113;SDS011;42994;51.606;9.988;2023-09-19T06:15:54;7.10;;;2.25;;
57113;SDS011;42994;51.606;9.988;2023-09-19T06:18:21;12.60;;;2.72;;
57113;SDS011;42994;51.606;9.988;2023-09-19T06:20:52;7.97;;;2.53;;
57113;SDS011;42994;51.606;9.988;2023-09-19T06:23:20;7.95;;;2.08;;
57113;SDS011;42994;51.606;9.988;2023-09-19T06:25:47;4.90;;;2.17;;
57113;SDS011;42994;51.606;9.988;2023-09-19T06:28:14;4.82;;;2.47;;
57113;SDS011;42994;51.606;9.988;2023-09-19T06:30:43;4.82;;;2.35;;
57113;SDS011;42994;51.606;9.988;2023-09-19T06:33:10;5.95;;;2.20;;
57113;SDS011;42994;51.606;9.988;2023-09-19T06:35:38;10.35;;;3.03;;
57113;SDS011;42994;51.606;9.988;2023-09-19T06:38:08;9.02;;;3.65;;
57113;SDS011;42994;51.606;9.988;2023-09-19T06:40:38;7.20;;;2.10;;
57113;SDS011;42994;51.606;9.988;2023-09-19T06:43:09;6.72;;;2.10;;
57113;SDS011;42994;51.606;9.988;2023-09-19T06:45:36;6.90;;;2.80;;
57113;SDS011;42994;51.606;9.988;2023-09-19T06:48:03;5.82;;;2.22;;
57113;SDS011;42994;51.606;9.988;2023-09-19T06:50:30;8.93;;;2.25;;
57113;SDS011;42994;51.606;9.988;2023-09-19T06:52:58;4.80;;;2.42;;
57113;SDS011;42994;51.606;9.988;2023-09-19T06:55:27;11.40;;;3.15;;
57113;SDS011;42994;51.606;9.988;2023-09-19T06:57:56;6.32;;;2.50;;
57113;SDS011;42994;51.606;9.988;2023-09-19T07:00:23;7.57;;;2.20;;
57113;SDS011;42994;51.606;9.988;2023-09-19T07:02:57;9.18;;;2.80;;
57113;SDS011;42994;51.606;9.988;2023-09-19T07:05:26;6.35;;;2.40;;
57113;SDS011;42994;51.606;9.988;2023-09-19T07:07:54;7.25;;;2.83;;
57113;SDS011;42994;51.606;9.988;2023-09-19T07:10:21;5.95;;;2.85;;
57113;SDS011;42994;51.606;9.988;2023-09-19T07:12:55;8.85;;;2.80;;
57113;SDS011;42994;51.606;9.988;2023-09-19T07:15:23;5.45;;;2.58;;
57113;SDS011;42994;51.606;9.988;2023-09-19T07:17:50;6.43;;;2.55;;
57113;SDS011;42994;51.606;9.988;2023-09-19T07:20:17;7.28;;;2.80;;
57113;SDS011;42994;51.606;9.988;2023-09-19T07:22:43;4.00;;;2.50;;
57113;SDS011;42994;51.606;9.988;2023-09-19T07:25:10;7.85;;;2.58;;
57113;SDS011;42994;51.606;9.988;2023-09-19T07:27:39;9.55;;;2.55;;
57113;SDS011;42994;51.606;9.988;2023-09-19T07:30:07;9.75;;;2.00;;
57113;SDS011;42994;51.606;9.988;2023-09-19T07:32:35;8.95;;;2.22;;
57113;SDS011;42994;51.606;9.988;2023-09-19T07:35:03;5.78;;;2.22;;
57113;SDS011;42994;51.606;9.988;2023-09-19T07:37:31;7.20;;;2.55;;
57113;SDS011;42994;51.606;9.988;2023-09-19T07:39:58;4.78;;;2.88;;
57113;SDS011;42994;51.606;9.988;2023-09-19T07:42:26;7.95;;;2.47;;
57113;SDS011;42994;51.606;9.988;2023-09-19T07:44:53;8.85;;;2.58;;
57113;SDS011;42994;51.606;9.988;2023-09-19T07:47:20;5.75;;;2.13;;
57113;SDS011;42994;51.606;9.988;2023-09-19T07:49:47;6.57;;;2.50;;
57113;SDS011;42994;51.606;9.988;2023-09-19T07:52:14;6.50;;;1.92;;
57113;SDS011;42994;51.606;9.988;2023-09-19T07:54:40;5.88;;;1.98;;
57113;SDS011;42994;51.606;9.988;2023-09-19T07:57:09;9.40;;;2.53;;
57113;SDS011;42994;51.606;9.988;2023-09-19T07:59:36;5.32;;;2.30;;
57113;SDS011;42994;51.606;9.988;2023-09-19T08:02:03;11.02;;;3.40;;
57113;SDS011;42994;51.606;9.988;2023-09-19T08:04:32;5.90;;;2.08;;
57113;SDS011;42994;51.606;9.988;2023-09-19T08:06:59;4.72;;;2.15;;
57113;SDS011;42994;51.606;9.988;2023-09-19T08:09:29;11.45;;;2.42;;
57113;SDS011;42994;51.606;9.988;2023-09-19T08:11:58;7.35;;;2.03;;
57113;SDS011;42994;51.606;9.988;2023-09-19T08:14:27;5.35;;;2.00;;
57113;SDS011;42994;51.606;9.988;2023-09-19T08:16:56;10.73;;;2.90;;
57113;SDS011;42994;51.606;9.988;2023-09-19T08:19:23;8.30;;;2.40;;
57113;SDS011;42994;51.606;9.988;2023-09-19T08:21:55;6.50;;;2.20;;
57113;SDS011;42994;51.606;9.988;2023-09-19T08:24:24;10.85;;;2.30;;
57113;SDS011;42994;51.606;9.988;2023-09-19T08:26:52;8.75;;;2.22;;
57113;SDS011;42994;51.606;9.988;2023-09-19T08:29:19;6.22;;;2.03;;
57113;SDS011;42994;51.606;9.988;2023-09-19T08:31:46;6.47;;;2.65;;
57113;SDS011;42994;51.606;9.988;2023-09-19T08:34:14;11.93;;;2.20;;
57113;SDS011;42994;51.606;9.988;2023-09-19T08:36:41;4.30;;;1.92;;
57113;SDS011;42994;51.606;9.988;2023-09-19T08:39:10;7.07;;;2.75;;
57113;SDS011;42994;51.606;9.988;2023-09-19T08:41:39;8.75;;;2.78;;
57113;SDS011;42994;51.606;9.988;2023-09-19T08:44:05;9.85;;;2.78;;
57113;SDS011;42994;51.606;9.988;2023-09-19T08:46:33;8.35;;;2.50;;
57113;SDS011;42994;51.606;9.988;2023-09-19T08:49:03;9.77;;;2.42;;
57113;SDS011;42994;51.606;9.988;2023-09-19T08:51:33;10.77;;;3.17;;
57113;SDS011;42994;51.606;9.988;2023-09-19T08:54:12;10.35;;;2.75;;
57113;SDS011;42994;51.606;9.988;2023-09-19T08:56:47;11.35;;;2.70;;
57113;SDS011;42994;51.606;9.988;2023-09-19T08:59:14;5.30;;;2.33;;
57113;SDS011;42994;51.606;9.988;2023-09-19T09:01:41;4.85;;;2.13;;
57113;SDS011;42994;51.606;9.988;2023-09-19T09:04:08;6.97;;;2.60;;
57113;SDS011;42994;51.606;9.988;2023-09-19T09:06:38;10.38;;;2.28;;
57113;SDS011;42994;51.606;9.988;2023-09-19T09:09:05;10.18;;;2.45;;
57113;SDS011;42994;51.606;9.988;2023-09-19T09:11:35;8.43;;;2.38;;
57113;SDS011;42994;51.606;9.988;2023-09-19T09:14:05;10.20;;;3.45;;
57113;SDS011;42994;51.606;9.988;2023-09-19T09:16:32;13.27;;;3.10;;
57113;SDS011;42994;51.606;9.988;2023-09-19T09:18:59;5.65;;;1.95;;
57113;SDS011;42994;51.606;9.988;2023-09-19T09:21:26;9.65;;;1.98;;
57113;SDS011;42994;51.606;9.988;2023-09-19T09:23:53;7.35;;;2.15;;
57113;SDS011;42994;51.606;9.988;2023-09-19T09:26:30;13.60;;;2.40;;
57113;SDS011;42994;51.606;9.988;2023-09-19T09:29:09;9.65;;;2.72;;
57113;SDS011;42994;51.606;9.988;2023-09-19T09:31:35;7.22;;;2.33;;
57113;SDS011;42994;51.606;9.988;2023-09-19T09:34:03;10.93;;;2.70;;
57113;SDS011;42994;51.606;9.988;2023-09-19T09:36:33;6.13;;;1.90;;
57113;SDS011;42994;51.606;9.988;2023-09-19T09:39:01;6.55;;;1.92;;
57113;SDS011;42994;51.606;9.988;2023-09-19T09:41:42;11.43;;;2.60;;
57113;SDS011;42994;51.606;9.988;2023-09-19T09:44:12;6.97;;;2.10;;
57113;SDS011;42994;51.606;9.988;2023-09-19T09:46:42;6.63;;;2.90;;
57113;SDS011;42994;51.606;9.988;2023-09-19T09:49:47;7.15;;;2.10;;
57113;SDS011;42994;51.606;9.988;2023-09-19T09:52:19;6.55;;;1.88;;
57113;SDS011;42994;51.606;9.988;2023-09-19T09:54:58;11.52;;;2.28;;
57113;SDS011;42994;51.606;9.988;2023-09-19T09:57:28;11.55;;;2.28;;
57113;SDS011;42994;51.606;9.988;2023-09-19T09:59:55;7.15;;;1.95;;
57113;SDS011;42994;51.606;9.988;2023-09-19T10:02:25;11.32;;;1.98;;
57113;SDS011;42994;51.606;9.988;2023-09-19T10:04:58;6.53;;;1.67;;
57113;SDS011;42994;51.606;9.988;2023-09-19T10:07:34;7.20;;;1.75;;
57113;SDS011;42994;51.606;9.988;2023-09-19T10:10:03;8.65;;;2.45;;
57113;SDS011;42994;51.606;9.988;2023-09-19T10:12:43;11.77;;;2.25;;
57113;SDS011;42994;51.606;9.988;2023-09-19T10:15:15;9.13;;;2.22;;
57113;SDS011;42994;51.606;9.988;2023-09-19T10:17:45;11.10;;;2.72;;
57113;SDS011;42994;51.606;9.988;2023-09-19T10:20:13;6.72;;;2.38;;
57113;SDS011;42994;51.606;9.988;2023-09-19T10:23:04;6.53;;;2.10;;
57113;SDS011;42994;51.606;9.988;2023-09-19T10:25:36;8.95;;;2.40;;
57113;SDS011;42994;51.606;9.988;2023-09-19T10:28:07;9.07;;;2.13;;
57113;SDS011;42994;51.606;9.988;2023-09-19T10:30:37;5.85;;;1.90;;
57113;SDS011;42994;51.606;9.988;2023-09-19T10:33:09;6.60;;;2.20;;
57113;SDS011;42994;51.606;9.988;2023-09-19T10:35:38;10.93;;;1.85;;
57113;SDS011;42994;51.606;9.988;2023-09-19T10:38:06;6.82;;;2.33;;
57113;SDS011;42994;51.606;9.988;2023-09-19T10:40:36;7.53;;;2.08;;
57113;SDS011;42994;51.606;9.988;2023-09-19T10:43:11;10.52;;;2.58;;
57113;SDS011;42994;51.606;9.988;2023-09-19T10:45:40;10.40;;;2.40;;
57113;SDS011;42994;51.606;9.988;2023-09-19T10:48:09;11.32;;;2.30;;
57113;SDS011;42994;51.606;9.988;2023-09-19T10:50:41;8.63;;;2.10;;
57113;SDS011;42994;51.606;9.988;2023-09-19T10:53:12;11.35;;;2.30;;
57113;SDS011;42994;51.606;9.988;2023-09-19T10:55:40;7.10;;;2.38;;
57113;SDS011;42994;51.606;9.988;2023-09-19T10:58:24;8.10;;;2.33;;
57113;SDS011;42994;51.606;9.988;2023-09-19T11:00:54;6.43;;;1.60;;
57113;SDS011;42994;51.606;9.988;2023-09-19T11:03:22;10.70;;;2.38;;
57113;SDS011;42994;51.606;9.988;2023-09-19T11:06:05;7.60;;;1.80;;
57113;SDS011;42994;51.606;9.988;2023-09-19T11:08:51;7.47;;;2.55;;
57113;SDS011;42994;51.606;9.988;2023-09-19T11:11:40;6.03;;;1.90;;
57113;SDS011;42994;51.606;9.988;2023-09-19T11:14:32;6.30;;;2.05;;
57113;SDS011;42994;51.606;9.988;2023-09-19T11:20:17;8.90;;;2.80;;
57113;SDS011;42994;51.606;9.988;2023-09-19T11:25:52;6.63;;;2.03;;
57113;SDS011;42994;51.606;9.988;2023-09-19T11:28:29;9.68;;;2.20;;
57113;SDS011;42994;51.606;9.988;2023-09-19T11:30:58;8.30;;;2.25;;
57113;SDS011;42994;51.606;9.988;2023-09-19T11:33:25;9.82;;;2.17;;
57113;SDS011;42994;51.606;9.988;2023-09-19T11:36:03;5.68;;;1.85;;
57113;SDS011;42994;51.606;9.988;2023-09-19T11:41:37;5.10;;;1.75;;
57113;SDS011;42994;51.606;9.988;2023-09-19T11:47:04;5.18;;;1.90;;
57113;SDS011;42994;51.606;9.988;2023-09-19T11:49:32;7.10;;;1.98;;
57113;SDS011;42994;51.606;9.988;2023-09-19T11:52:00;7.15;;;1.65;;
57113;SDS011;42994;51.606;9.988;2023-09-19T11:54:31;8.13;;;2.33;;
57113;SDS011;42994;51.606;9.988;2023-09-19T11:56:58;6.68;;;2.40;;
57113;SDS011;42994;51.606;9.988;2023-09-19T11:59:26;14.30;;;2.30;;
57113;SDS011;42994;51.606;9.988;2023-09-19T12:01:55;9.10;;;2.38;;
57113;SDS011;42994;51.606;9.988;2023-09-19T12:04:37;7.95;;;1.88;;
57113;SDS011;42994;51.606;9.988;2023-09-19T12:07:06;8.52;;;2.20;;
57113;SDS011;42994;51.606;9.988;2023-09-19T12:09:37;6.68;;;2.45;;
57113;SDS011;42994;51.606;9.988;2023-09-19T12:12:05;6.75;;;2.28;;
57113;SDS011;42994;51.606;9.988;2023-09-19T12:14:32;7.95;;;2.08;;
57113;SDS011;42994;51.606;9.988;2023-09-19T12:17:00;4.32;;;2.00;;
57113;SDS011;42994;51.606;9.988;2023-09-19T12:19:28;6.25;;;1.77;;
57113;SDS011;42994;51.606;9.988;2023-09-19T12:21:59;10.55;;;2.53;;
57113;SDS011;42994;51.606;9.988;2023-09-19T12:24:30;6.20;;;2.03;;
57113;SDS011;42994;51.606;9.988;2023-09-19T12:27:00;13.25;;;2.42;;
57113;SDS011;42994;51.606;9.988;2023-09-19T12:29:30;5.15;;;2.10;;
57113;SDS011;42994;51.606;9.988;2023-09-19T12:31:57;5.53;;;1.92;;
57113;SDS011;42994;51.606;9.988;2023-09-19T12:34:29;6.82;;;2.22;;
57113;SDS011;42994;51.606;9.988;2023-09-19T12:37:08;5.28;;;1.80;;
57113;SDS011;42994;51.606;9.988;2023-09-19T12:39:41;6.68;;;2.38;;
57113;SDS011;42994;51.606;9.988;2023-09-19T12:42:14;5.55;;;2.03;;
57113;SDS011;42994;51.606;9.988;2023-09-19T12:44:42;8.20;;;2.35;;
57113;SDS011;42994;51.606;9.988;2023-09-19T12:47:11;10.65;;;2.08;;
57113;SDS011;42994;51.606;9.988;2023-09-19T12:52:45;6.20;;;1.88;;
57113;SDS011;42994;51.606;9.988;2023-09-19T12:55:20;7.78;;;2.50;;
57113;SDS011;42994;51.606;9.988;2023-09-19T12:57:55;7.13;;;2.22;;
57113;SDS011;42994;51.606;9.988;2023-09-19T13:00:30;5.95;;;1.80;;
57113;SDS011;42994;51.606;9.988;2023-09-19T13:03:14;7.47;;;2.33;;
57113;SDS011;42994;51.606;9.988;2023-09-19T13:05:50;6.57;;;2.50;;
57113;SDS011;42994;51.606;9.988;2023-09-19T13:08:21;6.10;;;2.15;;
57113;SDS011;42994;51.606;9.988;2023-09-19T13:11:01;7.57;;;2.28;;
57113;SDS011;42994;51.606;9.988;2023-09-19T13:13:35;5.70;;;2.30;;
57113;SDS011;42994;51.606;9.988;2023-09-19T13:16:02;7.65;;;2.30;;
57113;SDS011;42994;51.606;9.988;2023-09-19T13:18:41;5.32;;;2.40;;
57113;SDS011;42994;51.606;9.988;2023-09-19T13:21:08;11.75;;;2.80;;
57113;SDS011;42994;51.606;9.988;2023-09-19T13:23:38;9.82;;;2.15;;
57113;SDS011;42994;51.606;9.988;2023-09-19T13:26:05;6.78;;;2.20;;
57113;SDS011;42994;51.606;9.988;2023-09-19T13:28:33;5.40;;;2.05;;
57113;SDS011;42994;51.606;9.988;2023-09-19T13:31:00;7.40;;;2.08;;
57113;SDS011;42994;51.606;9.988;2023-09-19T13:33:27;9.18;;;2.50;;
57113;SDS011;42994;51.606;9.988;2023-09-19T13:35:53;5.47;;;1.90;;
57113;SDS011;42994;51.606;9.988;2023-09-19T13:38:22;5.50;;;2.13;;
57113;SDS011;42994;51.606;9.988;2023-09-19T13:40:50;5.30;;;2.15;;
57113;SDS011;42994;51.606;9.988;2023-09-19T13:43:17;5.38;;;1.88;;
57113;SDS011;42994;51.606;9.988;2023-09-19T13:45:44;7.43;;;2.28;;
57113;SDS011;42994;51.606;9.988;2023-09-19T13:48:11;12.60;;;3.67;;
57113;SDS011;42994;51.606;9.988;2023-09-19T13:50:37;7.55;;;2.25;;
57113;SDS011;42994;51.606;9.988;2023-09-19T13:53:07;7.05;;;1.90;;
57113;SDS011;42994;51.606;9.988;2023-09-19T13:55:34;8.68;;;2.33;;
57113;SDS011;42994;51.606;9.988;2023-09-19T13:58:02;5.68;;;2.10;;
57113;SDS011;42994;51.606;9.988;2023-09-19T14:00:30;9.05;;;2.03;;
57113;SDS011;42994;51.606;9.988;2023-09-19T14:02:59;6.40;;;2.20;;
57113;SDS011;42994;51.606;9.988;2023-09-19T14:05:26;8.27;;;2.00;;
57113;SDS011;42994;51.606;9.988;2023-09-19T14:07:53;5.25;;;1.55;;
57113;SDS011;42994;51.606;9.988;2023-09-19T14:10:21;6.28;;;1.63;;
57113;SDS011;42994;51.606;9.988;2023-09-19T14:12:48;5.30;;;2.47;;
57113;SDS011;42994;51.606;9.988;2023-09-19T14:15:15;8.00;;;2.05;;
57113;SDS011;42994;51.606;9.988;2023-09-19T14:17:42;6.53;;;2.10;;
57113;SDS011;42994;51.606;9.988;2023-09-19T14:20:10;5.15;;;1.50;;
57113;SDS011;42994;51.606;9.988;2023-09-19T14:22:37;11.35;;;2.05;;
57113;SDS011;42994;51.606;9.988;2023-09-19T14:25:04;6.82;;;1.60;;
57113;SDS011;42994;51.606;9.988;2023-09-19T14:27:31;3.47;;;1.35;;
57113;SDS011;42994;51.606;9.988;2023-09-19T14:29:58;3.63;;;1.75;;
57113;SDS011;42994;51.606;9.988;2023-09-19T14:32:26;7.85;;;1.55;;
57113;SDS011;42994;51.606;9.988;2023-09-19T14:34:52;5.75;;;1.60;;
57113;SDS011;42994;51.606;9.988;2023-09-19T14:37:19;2.85;;;1.60;;
57113;SDS011;42994;51.606;9.988;2023-09-19T14:39:46;6.50;;;2.08;;
57113;SDS011;42994;51.606;9.988;2023-09-19T14:42:13;5.85;;;2.03;;
57113;SDS011;42994;51.606;9.988;2023-09-19T14:44:42;4.80;;;1.50;;
57113;SDS011;42994;51.606;9.988;2023-09-19T14:47:09;7.80;;;1.55;;
57113;SDS011;42994;51.606;9.988;2023-09-19T14:49:40;7.55;;;2.13;;
57113;SDS011;42994;51.606;9.988;2023-09-19T14:52:07;9.80;;;2.05;;
57113;SDS011;42994;51.606;9.988;2023-09-19T14:54:34;6.78;;;1.83;;
57113;SDS011;42994;51.606;9.988;2023-09-19T14:57:03;14.20;;;2.08;;
57113;SDS011;42994;51.606;9.988;2023-09-19T14:59:30;4.07;;;1.80;;
57113;SDS011;42994;51.606;9.988;2023-09-19T15:01:57;4.35;;;1.55;;
57113;SDS011;42994;51.606;9.988;2023-09-19T15:04:24;5.75;;;1.92;;
57113;SDS011;42994;51.606;9.988;2023-09-19T15:06:52;5.32;;;2.15;;
57113;SDS011;42994;51.606;9.988;2023-09-19T15:09:20;4.60;;;1.48;;
57113;SDS011;42994;51.606;9.988;2023-09-19T15:11:47;6.60;;;1.80;;
57113;SDS011;42994;51.606;9.988;2023-09-19T15:14:13;5.85;;;2.40;;
57113;SDS011;42994;51.606;9.988;2023-09-19T15:16:40;6.82;;;2.33;;
57113;SDS011;42994;51.606;9.988;2023-09-19T15:19:08;15.00;;;2.20;;